createdAt,value
2018-07-11T00:01:18.741Z,92.10
2018-07-11T00:03:51.752Z,92.10
2018-07-11T00:06:21.907Z,92.10
2018-07-11T00:08:51.125Z,92.00
2018-07-11T00:11:20.045Z,92.00
2018-07-11T00:13:49.229Z,92.10
2018-07-11T00:16:18.584Z,92.20
2018-07-11T00:21:16.071Z,92.20
2018-07-11T00:23:45.087Z,92.30
2018-07-11T00:26:14.058Z,92.40
2018-07-11T00:28:42.959Z,92.30
2018-07-11T00:31:11.936Z,92.20
2018-07-11T00:36:09.475Z,92.20
2018-07-11T00:38:38.464Z,92.10
2018-07-11T00:41:07.916Z,92.30
2018-07-11T00:43:36.898Z,92.30
2018-07-11T00:48:34.896Z,92.00
2018-07-11T00:51:04.441Z,92.00
2018-07-11T00:53:35.024Z,92.10
2018-07-11T00:56:04.428Z,92.20
2018-07-11T01:01:10.197Z,92.30
2018-07-11T01:03:40.812Z,92.50
2018-07-11T01:06:10.348Z,92.70
2018-07-11T01:08:41.464Z,92.90
2018-07-11T01:13:45.604Z,93.10
2018-07-11T01:18:50.392Z,93.00
2018-07-11T01:21:20.604Z,93.00
2018-07-11T01:23:49.500Z,93.00
2018-07-11T01:26:18.523Z,93.00
2018-07-11T01:28:47.474Z,93.00
2018-07-11T01:31:16.428Z,93.00
2018-07-11T01:33:45.304Z,93.00
2018-07-11T01:36:14.256Z,93.00
2018-07-11T01:38:43.132Z,93.00
2018-07-11T01:41:12.153Z,93.00
2018-07-11T01:43:41.084Z,93.10
2018-07-11T01:46:12.001Z,93.00
2018-07-11T01:48:40.995Z,93.00
2018-07-11T01:51:10.041Z,93.00
2018-07-11T01:53:39.096Z,93.00
2018-07-11T01:56:08.035Z,93.10
2018-07-11T01:58:37.312Z,93.00
2018-07-11T02:03:35.544Z,93.10
2018-07-11T02:06:04.577Z,93.10
2018-07-11T02:08:33.548Z,93.20
2018-07-11T02:11:02.555Z,93.30
2018-07-11T02:13:31.501Z,93.30
2018-07-11T02:16:00.524Z,93.20
2018-07-11T02:18:30.476Z,93.10
2018-07-11T02:26:02.136Z,92.90
2018-07-11T02:28:31.612Z,92.70
2018-07-11T02:31:00.559Z,92.50
2018-07-11T02:33:29.597Z,92.30
2018-07-11T02:35:58.557Z,92.50
2018-07-11T02:38:27.468Z,92.10
2018-07-11T02:40:56.592Z,92.20
2018-07-11T02:43:25.561Z,92.30
2018-07-11T02:45:54.556Z,92.30
2018-07-11T02:48:23.529Z,92.40
2018-07-11T02:50:52.577Z,92.40
2018-07-11T02:53:23.351Z,92.50
2018-07-11T02:58:21.692Z,92.60
2018-07-11T03:00:51.108Z,92.60
2018-07-11T03:03:20.568Z,92.50
2018-07-11T03:05:49.485Z,92.50
2018-07-11T03:08:18.943Z,92.50
2018-07-11T03:10:48.021Z,92.50
2018-07-11T03:15:47.830Z,92.70
2018-07-11T03:18:16.880Z,92.80
2018-07-11T03:20:45.753Z,92.80
2018-07-11T03:23:14.680Z,92.70
2018-07-11T03:25:43.636Z,92.70
2018-07-11T03:30:41.109Z,92.70
2018-07-11T03:35:38.656Z,92.60
2018-07-11T03:38:07.608Z,92.50
2018-07-11T03:40:36.551Z,92.50
2018-07-11T03:43:05.553Z,92.40
2018-07-11T03:48:03.016Z,92.30
2018-07-11T03:50:31.988Z,92.50
2018-07-11T03:53:00.861Z,92.80
2018-07-11T03:55:29.756Z,92.60
2018-07-11T03:57:58.645Z,92.60
2018-07-11T04:00:27.497Z,92.80
2018-07-11T04:02:56.992Z,92.90
2018-07-11T04:07:54.417Z,92.90
2018-07-11T04:10:23.339Z,93.00
2018-07-11T04:12:58.811Z,92.90
2018-07-11T04:15:27.751Z,92.80
2018-07-11T04:17:56.826Z,92.80
2018-07-11T04:20:25.968Z,92.80
2018-07-11T04:22:54.880Z,92.80
2018-07-11T04:25:23.949Z,93.10
2018-07-11T04:27:52.964Z,92.80
2018-07-11T04:32:51.463Z,91.00
2018-07-11T04:37:50.008Z,89.60
2018-07-11T04:40:19.812Z,89.10
2018-07-11T04:42:48.895Z,89.50
2018-07-11T04:45:17.836Z,90.40
2018-07-11T04:47:46.805Z,90.90
2018-07-11T04:50:15.796Z,91.20
2018-07-11T04:55:23.220Z,91.70
2018-07-11T04:57:52.104Z,92.00
2018-07-11T05:00:21.244Z,92.00
2018-07-11T05:02:50.146Z,91.90
2018-07-11T05:05:19.052Z,92.00
2018-07-11T05:07:49.065Z,92.00
2018-07-11T05:10:17.992Z,92.00
2018-07-11T05:12:47.067Z,92.10
2018-07-11T05:15:16.449Z,92.00
2018-07-11T05:17:45.647Z,91.80
2018-07-11T05:20:14.549Z,92.00
2018-07-11T05:22:44.372Z,92.10
2018-07-11T05:25:13.248Z,92.30
2018-07-11T05:27:42.543Z,92.20
2018-07-11T05:30:11.396Z,92.20
2018-07-11T05:37:38.161Z,91.80
2018-07-11T05:40:07.028Z,91.80
2018-07-11T05:42:35.968Z,91.90
2018-07-11T05:45:04.819Z,91.90
2018-07-11T05:47:33.682Z,91.50
2018-07-11T05:50:02.585Z,91.20
2018-07-11T05:52:31.436Z,91.10
2018-07-11T05:55:00.360Z,91.20
2018-07-11T05:57:29.226Z,91.40
2018-07-11T05:59:58.149Z,91.40
2018-07-11T06:02:27.107Z,91.50
2018-07-11T06:04:56.056Z,91.40
2018-07-11T06:07:24.896Z,91.00
2018-07-11T06:09:53.792Z,91.00
2018-07-11T06:12:22.647Z,91.00
2018-07-11T06:14:51.533Z,91.00
2018-07-11T06:19:49.225Z,91.00
2018-07-11T06:22:18.185Z,91.00
2018-07-11T06:24:47.130Z,90.90
2018-07-11T06:27:16.013Z,90.90
2018-07-11T06:29:44.953Z,91.10
2018-07-11T06:32:13.793Z,91.10
2018-07-11T06:34:42.698Z,90.90
2018-07-11T06:37:11.597Z,90.80
2018-07-11T06:39:40.487Z,90.30
2018-07-11T06:42:09.405Z,90.10
2018-07-11T06:44:38.309Z,90.10
2018-07-11T06:47:12.389Z,90.10
2018-07-11T06:49:41.436Z,90.30
2018-07-11T06:52:10.412Z,90.20
2018-07-11T06:54:39.261Z,90.20
2018-07-11T06:57:08.301Z,90.00
2018-07-11T06:59:37.164Z,89.30
2018-07-11T07:02:06.543Z,89.80
2018-07-11T07:04:35.372Z,89.80
2018-07-11T07:07:05.108Z,87.90
2018-07-11T07:12:02.444Z,88.90
2018-07-11T07:14:31.328Z,87.70
2018-07-11T07:17:00.212Z,86.80
2018-07-11T07:19:31.917Z,86.40
2018-07-11T07:22:00.829Z,86.70
2018-07-11T07:24:29.759Z,85.80
2018-07-11T07:26:58.653Z,84.80
2018-07-11T07:29:27.525Z,82.30
2018-07-11T07:31:56.433Z,81.40
2018-07-11T07:34:25.284Z,81.20
2018-07-11T07:36:54.259Z,81.60
2018-07-11T07:39:23.168Z,81.00
2018-07-11T07:41:52.084Z,81.00
2018-07-11T07:44:21.068Z,78.20
2018-07-11T07:46:55.338Z,77.90
2018-07-11T07:49:24.301Z,78.10
2018-07-11T07:51:53.274Z,78.00
2018-07-11T07:54:22.349Z,76.40
2018-07-11T07:56:51.572Z,77.60
2018-07-11T07:59:20.675Z,76.30
2018-07-11T08:01:49.661Z,75.60
2018-07-11T08:04:18.664Z,74.30
2018-07-11T08:06:47.844Z,71.30
2018-07-11T08:09:16.691Z,70.40
2018-07-11T08:14:14.061Z,69.90
2018-07-11T08:19:11.435Z,67.20
2018-07-11T08:21:40.305Z,66.60
2018-07-11T08:24:20.198Z,67.70
2018-07-11T08:27:29.112Z,67.30
2018-07-11T08:30:40.105Z,66.00
2018-07-11T08:37:33.020Z,65.50
2018-07-11T08:43:17.916Z,65.60
2018-07-11T08:48:02.480Z,64.60
2018-07-11T08:52:44.778Z,64.80
2018-07-11T08:55:24.600Z,62.60
2018-07-11T09:00:42.557Z,62.70
2018-07-11T09:03:25.773Z,62.70
2018-07-11T09:06:06.568Z,63.10
2018-07-11T09:09:46.064Z,62.40
2018-07-11T09:12:22.967Z,61.90
2018-07-11T09:15:03.009Z,61.20
2018-07-11T09:28:31.368Z,61.80
2018-07-11T09:31:00.320Z,61.60
2018-07-11T09:33:29.386Z,58.60
2018-07-11T09:35:58.280Z,58.60
2018-07-11T09:38:27.192Z,59.20
2018-07-11T09:40:56.156Z,58.10
2018-07-11T09:43:25.129Z,59.60
2018-07-11T09:45:54.208Z,54.90
2018-07-11T09:48:23.055Z,54.60
2018-07-11T09:50:52.033Z,54.30
2018-07-11T09:53:20.949Z,51.60
2018-07-11T09:55:49.988Z,52.10
2018-07-11T09:58:19.954Z,50.90
2018-07-11T10:00:54.157Z,49.70
2018-07-11T10:03:23.269Z,50.90
2018-07-11T10:05:52.781Z,50.10
2018-07-11T10:08:21.699Z,51.30
2018-07-11T10:13:19.092Z,50.10
2018-07-11T10:15:48.036Z,51.20
2018-07-11T10:18:16.914Z,50.80
2018-07-11T10:20:45.921Z,49.00
2018-07-11T10:23:14.904Z,50.30
2018-07-11T10:25:44.342Z,49.30
2018-07-11T10:28:17.506Z,47.80
2018-07-11T10:30:46.430Z,48.50
2018-07-11T10:33:15.528Z,46.40
2018-07-11T10:35:45.420Z,47.10
2018-07-11T10:40:43.793Z,46.00
2018-07-11T10:43:12.745Z,46.60
2018-07-11T10:45:41.672Z,45.50
2018-07-11T10:48:10.559Z,45.50
2018-07-11T10:50:39.477Z,46.80
2018-07-11T10:53:08.388Z,47.10
2018-07-11T10:55:37.306Z,45.20
2018-07-11T10:58:06.207Z,46.10
2018-07-11T11:00:37.197Z,46.70
2018-07-11T11:03:04.139Z,47.10
2018-07-11T11:08:01.757Z,47.70
2018-07-11T11:10:30.581Z,46.50
2018-07-11T11:13:00.311Z,45.90
2018-07-11T11:15:29.268Z,47.70
2018-07-11T11:17:58.184Z,48.90
2018-07-11T11:20:27.212Z,48.00
2018-07-11T11:22:56.188Z,46.40
2018-07-11T11:25:26.161Z,45.30
2018-07-11T11:27:55.068Z,45.20
2018-07-11T11:30:23.969Z,45.90
2018-07-11T11:32:52.953Z,46.50
2018-07-11T11:35:21.852Z,46.60
2018-07-11T11:37:50.896Z,47.40
2018-07-11T11:40:19.978Z,47.70
2018-07-11T11:42:49.485Z,47.70
2018-07-11T11:45:18.685Z,48.30
2018-07-11T11:47:47.704Z,48.80
2018-07-11T11:50:16.906Z,49.30
2018-07-11T11:52:45.953Z,50.60
2018-07-11T11:55:14.871Z,50.50
2018-07-11T11:57:43.887Z,50.70
2018-07-11T12:00:12.900Z,51.20
2018-07-11T12:02:41.820Z,51.20
2018-07-11T12:07:39.232Z,51.30
2018-07-11T12:10:08.176Z,52.30
2018-07-11T12:12:37.067Z,52.80
2018-07-11T12:17:34.907Z,55.30
2018-07-11T12:20:04.267Z,55.80
2018-07-11T12:25:01.829Z,56.80
2018-07-11T12:27:30.858Z,56.90
2018-07-11T12:29:59.815Z,57.70
2018-07-11T12:32:28.769Z,58.40
2018-07-11T12:34:58.052Z,59.10
2018-07-11T12:37:27.086Z,59.50
2018-07-11T12:39:56.947Z,59.90
2018-07-11T12:55:34.184Z,60.70
2018-07-11T12:58:03.335Z,62.30
2018-07-11T13:00:32.396Z,62.40
2018-07-11T13:03:01.478Z,62.80
2018-07-11T13:10:27.866Z,62.00
2018-07-11T13:12:56.848Z,62.40
2018-07-11T13:15:25.863Z,63.10
2018-07-11T13:17:55.060Z,63.50
2018-07-11T13:20:23.992Z,63.60
2018-07-11T13:22:52.908Z,65.10
2018-07-11T13:27:51.053Z,60.30
2018-07-11T13:30:20.340Z,60.30
2018-07-11T13:32:49.315Z,60.40
2018-07-11T13:35:18.284Z,60.80
2018-07-11T13:40:15.796Z,62.90
2018-07-11T13:42:45.711Z,63.60
2018-07-11T13:45:14.620Z,71.70
2018-07-11T13:47:43.861Z,71.20
2018-07-11T13:50:12.764Z,72.00
2018-07-11T13:52:41.942Z,75.00
2018-07-11T13:55:10.926Z,75.00
2018-07-11T14:00:08.384Z,76.90
2018-07-11T14:02:37.297Z,76.40
2018-07-11T14:05:06.428Z,77.90
2018-07-11T14:07:35.627Z,78.10
2018-07-11T14:10:04.592Z,77.00
2018-07-11T14:12:33.549Z,78.00
2018-07-11T14:15:02.576Z,78.20
2018-07-11T14:17:32.174Z,79.30
2018-07-11T14:20:01.295Z,81.10
2018-07-11T14:22:30.252Z,80.60
2018-07-11T14:24:59.255Z,79.50
2018-07-11T14:27:28.772Z,80.00
2018-07-11T14:29:59.598Z,78.90
2018-07-11T14:32:28.857Z,78.50
2018-07-11T14:34:57.861Z,79.80
2018-07-11T14:37:26.836Z,82.10
2018-07-11T14:39:55.721Z,82.60
2018-07-11T14:42:24.735Z,84.10
2018-07-11T14:44:53.935Z,86.30
2018-07-11T14:47:28.250Z,86.90
2018-07-11T14:49:57.252Z,85.70
2018-07-11T14:52:26.244Z,84.90
2018-07-11T14:54:55.192Z,83.70
2018-07-11T14:57:25.133Z,84.20
2018-07-11T14:59:54.158Z,85.40
2018-07-11T15:02:23.888Z,84.80
2018-07-11T15:04:52.884Z,86.70
2018-07-11T15:09:50.348Z,88.00
2018-07-11T15:12:19.392Z,88.00
2018-07-11T15:14:48.345Z,87.80
2018-07-11T15:22:14.420Z,84.90
2018-07-11T15:24:43.405Z,86.80
2018-07-11T15:27:12.484Z,86.90
2018-07-11T15:29:41.500Z,86.70
2018-07-11T15:32:11.337Z,86.90
2018-07-11T15:34:41.104Z,86.90
2018-07-11T15:37:10.370Z,86.50
2018-07-11T15:39:39.869Z,85.30
2018-07-11T15:42:08.976Z,85.70
2018-07-11T15:44:37.927Z,85.30
2018-07-11T15:47:07.504Z,84.80
2018-07-11T15:49:37.589Z,84.40
2018-07-11T15:52:06.528Z,84.70
2018-07-11T15:57:05.993Z,84.90
2018-07-11T15:59:44.321Z,84.80
2018-07-11T16:02:13.304Z,84.60
2018-07-11T16:04:42.595Z,84.00
2018-07-11T16:07:11.676Z,82.90
2018-07-11T16:09:54.632Z,83.30
2018-07-11T16:12:24.380Z,83.90
2018-07-11T16:17:22.600Z,84.50
2018-07-11T16:19:51.918Z,85.00
2018-07-11T16:22:21.236Z,84.70
2018-07-11T16:24:50.419Z,85.00
2018-07-11T16:27:20.400Z,83.50
2018-07-11T16:29:49.620Z,83.70
2018-07-11T16:32:18.564Z,84.60
2018-07-11T16:37:16.030Z,86.90
2018-07-11T16:39:45.497Z,87.70
2018-07-11T16:42:14.447Z,88.10
2018-07-11T16:44:43.482Z,88.80
2018-07-11T16:47:13.102Z,89.70
2018-07-11T16:49:42.884Z,90.00
2018-07-11T16:52:11.883Z,90.00
2018-07-11T16:54:42.396Z,89.60
2018-07-11T16:57:13.116Z,89.80
2018-07-11T17:02:25.390Z,89.60
2018-07-11T17:04:56.064Z,90.30
2018-07-11T17:07:26.041Z,90.30
2018-07-11T17:09:57.128Z,90.20
2018-07-11T17:12:26.528Z,88.80
2018-07-11T17:17:33.041Z,89.30
2018-07-11T17:20:06.658Z,89.50
2018-07-11T17:22:49.396Z,89.30
2018-07-11T17:25:21.313Z,90.00
2018-07-11T17:28:00.801Z,90.00
2018-07-11T17:30:35.167Z,89.40
2018-07-11T17:33:06.292Z,89.90
2018-07-11T17:35:35.865Z,90.50
2018-07-11T17:38:06.685Z,90.20
2018-07-11T17:40:39.148Z,90.50
2018-07-11T17:43:10.145Z,90.60
2018-07-11T17:49:17.171Z,90.90
2018-07-11T17:51:50.141Z,90.60
2018-07-11T17:54:19.161Z,91.00
2018-07-11T17:56:53.446Z,90.80
2018-07-11T18:01:52.951Z,91.60
2018-07-11T18:04:42.784Z,91.50
2018-07-11T18:07:15.165Z,91.80
2018-07-11T18:09:58.920Z,91.60
2018-07-11T18:12:35.665Z,91.90
2018-07-11T18:16:46.170Z,92.10
2018-07-11T18:19:26.546Z,92.20
2018-07-11T18:22:06.476Z,92.00
2018-07-11T18:24:57.298Z,92.30
2018-07-11T18:29:39.814Z,92.10
2018-07-11T18:32:28.209Z,92.20
2018-07-11T18:35:40.402Z,92.00
2018-07-11T18:38:22.576Z,92.10
2018-07-11T18:41:09.511Z,92.00
2018-07-11T18:43:54.651Z,91.70
2018-07-11T18:46:39.281Z,91.60
2018-07-11T18:49:17.186Z,91.70
2018-07-11T18:51:57.225Z,91.50
2018-07-11T18:54:52.855Z,92.00
2018-07-11T18:57:30.631Z,92.30
2018-07-11T19:00:15.112Z,92.60
2018-07-11T19:03:55.382Z,92.90
2018-07-11T19:06:33.659Z,92.90
2018-07-11T19:09:11.475Z,92.10
2018-07-11T19:12:59.702Z,92.20
2018-07-11T19:15:37.711Z,92.10
2018-07-11T19:18:19.419Z,92.00
2018-07-11T19:21:10.201Z,92.10
2018-07-11T19:23:50.402Z,92.30
2018-07-11T19:26:28.478Z,92.50
2018-07-11T19:29:09.316Z,92.70
2018-07-11T19:32:04.479Z,92.60
2018-07-11T19:34:41.265Z,92.50
2018-07-11T19:40:13.950Z,92.50
2018-07-11T19:44:53.336Z,92.50
2018-07-11T19:48:28.564Z,92.40
2018-07-11T19:51:14.284Z,92.10
2018-07-11T19:53:54.293Z,92.10
2018-07-11T19:56:39.361Z,92.30
2018-07-11T19:59:08.322Z,92.10
2018-07-11T20:01:37.285Z,92.10
2018-07-11T20:04:06.295Z,92.20
2018-07-11T20:06:35.221Z,92.20
2018-07-11T20:09:05.237Z,92.20
2018-07-11T20:11:34.221Z,92.30
2018-07-11T20:14:03.190Z,92.40
2018-07-11T20:19:00.860Z,92.50
2018-07-11T20:21:29.808Z,92.60
2018-07-11T20:23:58.777Z,92.60
2018-07-11T20:26:27.686Z,92.90
2018-07-11T20:28:57.317Z,93.00
2018-07-11T20:31:26.924Z,92.90
2018-07-11T20:33:55.902Z,93.00
2018-07-11T20:36:24.887Z,93.10
2018-07-11T20:38:53.800Z,93.10
2018-07-11T20:41:22.824Z,93.00
2018-07-11T20:46:22.004Z,93.00
2018-07-11T20:48:50.965Z,93.20
2018-07-11T20:51:19.856Z,93.50
2018-07-11T20:53:48.828Z,93.60
2018-07-11T20:56:17.819Z,93.70
2018-07-11T20:58:57.877Z,93.50
2018-07-11T21:01:37.851Z,93.40
2018-07-11T21:07:23.625Z,93.40
2018-07-11T21:10:03.541Z,93.20
2018-07-11T21:12:43.544Z,93.20
2018-07-11T21:15:44.023Z,93.20
2018-07-11T21:19:24.502Z,93.30
2018-07-11T21:21:53.428Z,93.20
2018-07-11T21:24:22.474Z,93.30
2018-07-11T21:26:51.507Z,93.30
2018-07-11T21:29:20.448Z,93.40
2018-07-11T21:31:49.379Z,93.40
2018-07-11T21:36:46.881Z,93.30
2018-07-11T21:39:16.050Z,93.30
2018-07-11T21:44:13.529Z,93.40
2018-07-11T21:49:11.220Z,93.60
2018-07-11T21:51:40.100Z,93.60
2018-07-11T21:59:05.980Z,94.00
2018-07-11T22:01:34.816Z,93.70
2018-07-11T22:04:03.804Z,93.70
2018-07-11T22:06:32.688Z,93.90
2018-07-11T22:09:01.581Z,93.60
2018-07-11T22:11:30.555Z,93.90
2018-07-11T22:13:59.464Z,94.10
2018-07-11T22:16:28.613Z,93.80
2018-07-11T22:18:57.608Z,93.90
2018-07-11T22:21:25.168Z,93.90
2018-07-11T22:23:52.732Z,93.70
2018-07-11T22:26:20.252Z,93.50
2018-07-11T22:28:47.859Z,93.60
2018-07-11T22:31:15.480Z,93.50
2018-07-11T22:36:10.841Z,93.40
2018-07-11T22:38:38.416Z,93.40
2018-07-11T22:41:05.951Z,93.50
2018-07-11T22:43:33.552Z,93.60
2018-07-11T22:46:01.072Z,93.50
2018-07-11T22:48:28.637Z,93.60
2018-07-11T22:50:56.157Z,93.60
2018-07-11T22:53:23.744Z,93.70
2018-07-11T22:55:51.260Z,93.80
2018-07-11T22:58:18.824Z,93.80
2018-07-11T23:00:46.344Z,93.70
2018-07-11T23:03:13.908Z,93.70
2018-07-11T23:05:41.424Z,93.60
2018-07-11T23:10:36.796Z,93.60
2018-07-11T23:13:04.352Z,93.20
2018-07-11T23:15:31.867Z,93.60
2018-07-11T23:17:59.415Z,93.70
2018-07-11T23:20:27.040Z,93.70
2018-07-11T23:22:54.592Z,93.80
2018-07-11T23:25:22.115Z,93.80
2018-07-11T23:27:49.656Z,94.10
2018-07-11T23:32:45.041Z,93.70
2018-07-11T23:35:12.560Z,93.70
2018-07-11T23:37:40.115Z,93.70
2018-07-11T23:40:07.681Z,93.80
2018-07-11T23:42:35.216Z,93.80
2018-07-11T23:47:30.575Z,94.00
2018-07-11T23:49:58.154Z,93.90
2018-07-11T23:52:25.710Z,94.00
2018-07-11T23:54:53.259Z,93.90
2018-07-11T23:57:20.823Z,93.90
2018-07-11T23:59:48.336Z,93.80
